Time;durP1;ratioP1;P1;durP2;ratioP2;P2;SDS_P1;SDS_P2;PMS_P1;PMS_P2;Temp;Humidity;BMP_temperature;BMP_pressure;BME280_temperature;BME280_humidity;BME280_pressure;Samples;Min_cycle;Max_cycle;Signal;HPM_P1;HPM_P2
2022/02/24 00:01:48;;;;;;;6.57;1.95;;;;;;;7.01;76.71;101668.53;5030365;28;20206;-78
2022/02/24 00:04:14;;;;;;;9.15;2.35;;;;;;;7.00;76.33;101665.03;5016543;28;20353;-77
2022/02/24 00:06:39;;;;;;;5.80;1.95;;;;;;;7.01;76.90;101652.91;5032645;28;20061;-77
2022/02/24 00:09:07;;;;;;;9.23;1.63;;;;;;;7.02;77.16;101644.19;5034123;28;20264;-78
2022/02/24 00:11:32;;;;;;;16.55;2.83;;;;;;;6.99;76.82;101637.28;5032771;28;20080;-77
2022/02/24 00:13:58;;;;;;;5.18;1.98;;;;;;;7.01;77.07;101643.34;5017947;28;20037;-77
2022/02/24 00:16:23;;;;;;;6.28;1.92;;;;;;;6.98;76.08;101639.91;5017037;28;20041;-77
2022/02/24 00:18:49;;;;;;;11.82;1.92;;;;;;;6.96;75.82;101641.69;5033685;28;20095;-77
2022/02/24 00:21:14;;;;;;;4.38;1.80;;;;;;;6.98;76.77;101642.50;5034130;28;20366;-77
2022/02/24 00:23:40;;;;;;;6.22;1.58;;;;;;;6.99;77.11;101629.47;5035141;28;20041;-77
2022/02/24 00:26:05;;;;;;;5.28;1.42;;;;;;;7.01;77.46;101629.47;5017015;28;20030;-77
2022/02/24 00:28:30;;;;;;;4.47;1.55;;;;;;;7.02;78.08;101632.06;5036006;28;20041;-78
2022/02/24 00:30:56;;;;;;;7.22;1.60;;;;;;;7.01;78.05;101619.91;5029395;28;20037;-78
2022/02/24 00:33:21;;;;;;;3.95;1.52;;;;;;;7.04;78.08;101618.97;5034718;28;20057;-77
2022/02/24 00:35:46;;;;;;;6.45;1.83;;;;;;;7.01;77.68;101622.50;5035410;28;20037;-77
2022/02/24 00:38:12;;;;;;;5.85;1.60;;;;;;;7.02;78.08;101625.97;5021346;28;20042;-77
2022/02/24 00:40:37;;;;;;;4.70;1.67;;;;;;;7.01;77.83;101619.91;5016773;28;20341;-77
2022/02/24 00:43:02;;;;;;;9.02;2.10;;;;;;;7.00;76.69;101619.91;5001158;28;20098;-77
2022/02/24 00:45:30;;;;;;;5.32;1.70;;;;;;;6.97;76.25;101620.84;5017280;28;20049;-77
2022/02/24 00:47:55;;;;;;;11.38;1.88;;;;;;;6.96;76.95;101611.28;5015407;28;20095;-78
2022/02/24 00:50:21;;;;;;;8.43;2.00;;;;;;;6.97;77.13;101613.03;5035766;28;20057;-78
2022/02/24 00:52:46;;;;;;;5.95;1.50;;;;;;;6.98;77.71;101614.72;5017813;28;20140;-78
2022/02/24 00:55:11;;;;;;;4.15;1.58;;;;;;;6.99;78.03;101608.66;5036665;28;20496;-78
2022/02/24 00:57:37;;;;;;;6.10;1.45;;;;;;;7.01;78.24;101611.22;5036973;28;20117;-78
2022/02/24 01:00:04;;;;;;;8.27;2.15;;;;;;;7.00;77.82;101604.28;5038250;28;20041;-77
2022/02/24 01:02:30;;;;;;;4.70;1.45;;;;;;;7.00;78.33;101594.72;5023556;28;20049;-77
2022/02/24 01:04:55;;;;;;;5.00;1.55;;;;;;;7.01;78.10;101593.84;5035738;28;20229;-77
2022/02/24 01:07:21;;;;;;;5.60;1.40;;;;;;;7.01;78.24;101599.06;5020390;28;20333;-77
2022/02/24 01:09:46;;;;;;;6.10;1.60;;;;;;;6.99;77.85;101582.59;5020910;28;20045;-77
2022/02/24 01:12:12;;;;;;;4.07;1.20;;;;;;;7.00;78.24;101583.44;5032970;28;20109;-77
2022/02/24 01:14:37;;;;;;;8.35;2.13;;;;;;;6.99;76.98;101586.97;5005924;28;20112;-77
2022/02/24 01:17:04;;;;;;;11.07;2.72;;;;;;;6.97;76.78;101566.13;5022321;28;20041;-77
2022/02/24 01:19:29;;;;;;;7.85;1.90;;;;;;;6.97;76.94;101571.34;5039677;28;20159;-77
2022/02/24 01:21:54;;;;;;;15.32;2.88;;;;;;;6.98;77.39;101567.00;5039663;28;20057;-77
2022/02/24 01:24:20;;;;;;;7.13;1.70;;;;;;;6.96;77.45;101563.56;5039776;28;20033;-78
2022/02/24 01:26:45;;;;;;;14.35;2.65;;;;;;;6.96;77.54;101563.56;5040086;28;20053;-77
2022/02/24 01:29:11;;;;;;;6.32;1.60;;;;;;;6.97;78.01;101570.47;5039453;28;20029;-77
2022/02/24 01:31:36;;;;;;;10.88;1.88;;;;;;;6.96;78.09;101559.19;5021764;28;20124;-77
2022/02/24 01:34:01;;;;;;;6.00;2.13;;;;;;;6.96;77.69;101548.78;5021654;28;20210;-78
2022/02/24 01:36:28;;;;;;;10.00;1.95;;;;;;;6.95;77.77;101543.59;5021434;28;20245;-78
2022/02/24 01:38:54;;;;;;;5.72;1.60;;;;;;;6.96;78.17;101540.13;5039365;28;20107;-77
2022/02/24 01:41:19;;;;;;;8.60;1.98;;;;;;;6.97;78.22;101537.50;5039795;28;20252;-77
2022/02/24 01:43:46;;;;;;;5.45;1.98;;;;;;;6.98;78.69;101527.94;5039681;28;20052;-78
2022/02/24 01:46:12;;;;;;;4.72;1.40;;;;;;;6.99;78.53;101525.31;5039041;28;20048;-78
2022/02/24 01:48:38;;;;;;;8.30;2.63;;;;;;;6.96;78.21;101527.09;5021606;28;20037;-78
2022/02/24 01:51:03;;;;;;;5.65;2.38;;;;;;;6.96;78.44;101520.13;5038898;28;20055;-77
2022/02/24 01:53:28;;;;;;;3.83;1.90;;;;;;;6.96;77.83;101503.66;5039489;28;20053;-77
2022/02/24 01:55:54;;;;;;;5.75;1.77;;;;;;;6.97;78.13;101502.75;5038794;28;20117;-77
2022/02/24 01:58:19;;;;;;;7.18;2.22;;;;;;;6.96;78.31;101499.31;5038877;28;20051;-77
2022/02/24 02:04:06;;;;;;;5.47;2.20;;;;;;;6.94;77.87;101479.38;5023879;28;20345;-78
2022/02/24 02:06:32;;;;;;;6.78;2.03;;;;;;;6.95;78.56;101481.97;5004942;28;20100;-78
2022/02/24 02:08:57;;;;;;;4.45;1.52;;;;;;;6.95;78.74;101481.97;5021420;28;20033;-77
2022/02/24 02:11:22;;;;;;;5.40;1.50;;;;;;;6.95;78.67;101474.16;5037873;28;20033;-77
2022/02/24 02:13:48;;;;;;;9.35;2.03;;;;;;;6.95;78.07;101478.47;5039058;28;20025;-77
2022/02/24 02:16:13;;;;;;;6.78;2.13;;;;;;;6.94;78.07;101474.19;5039152;28;20033;-78
2022/02/24 02:18:39;;;;;;;4.50;2.40;;;;;;;6.93;78.41;101468.13;5038538;28;20365;-77
2022/02/24 02:21:05;;;;;;;8.93;2.38;;;;;;;6.92;78.04;101459.44;5021235;28;20045;-78
2022/02/24 02:23:30;;;;;;;5.38;1.80;;;;;;;6.93;78.44;101460.31;5038839;28;20052;-77
2022/02/24 02:25:56;;;;;;;5.28;1.73;;;;;;;6.95;78.15;101463.75;5038653;28;20441;-78
2022/02/24 02:28:21;;;;;;;5.68;1.75;;;;;;;6.95;77.79;101462.84;5038248;28;20368;-78
2022/02/24 02:30:47;;;;;;;6.03;1.70;;;;;;;6.91;77.38;101454.25;5038865;28;20041;-77
2022/02/24 02:33:12;;;;;;;7.93;1.58;;;;;;;6.94;77.93;101449.00;5038689;28;20213;-77
2022/02/24 02:35:37;;;;;;;14.82;2.65;;;;;;;6.94;76.53;101448.13;5020928;28;20036;-78
2022/02/24 02:38:04;;;;;;;8.77;1.95;;;;;;;6.92;77.27;101446.41;5038117;28;20029;-77
2022/02/24 02:40:30;;;;;;;8.93;2.22;;;;;;;6.92;77.41;101438.59;5021307;28;20033;-77
2022/02/24 02:42:55;;;;;;;4.60;1.70;;;;;;;6.92;76.95;101445.56;5038119;28;20044;-78
2022/02/24 02:45:20;;;;;;;6.45;1.95;;;;;;;6.92;77.22;101437.75;5038279;28;20249;-78
2022/02/24 02:47:46;;;;;;;5.43;1.92;;;;;;;6.93;77.52;101434.28;5038310;28;20084;-78
2022/02/24 02:50:13;;;;;;;8.93;2.00;;;;;;;6.91;77.26;101439.50;5020226;28;20041;-78
2022/02/24 02:52:38;;;;;;;6.95;2.25;;;;;;;6.93;77.88;101439.47;5038959;28;20060;-77
2022/02/24 02:55:07;;;;;;;4.13;1.38;;;;;;;6.92;77.52;101435.13;5020493;28;20396;-78
2022/02/24 02:57:33;;;;;;;;;;;;;;;6.92;77.25;101435.13;5020689;28;20025;-78
2022/02/24 02:59:59;;;;;;;10.45;2.30;;;;;;;6.91;76.94;101426.47;5037752;28;19927;-78
2022/02/24 03:02:24;;;;;;;10.57;2.20;;;;;;;6.89;76.78;101428.25;5038388;28;20041;-78
2022/02/24 03:04:50;;;;;;;7.30;1.83;;;;;;;6.89;77.37;101417.84;5020245;28;20033;-78
2022/02/24 03:07:19;;;;;;;5.55;1.95;;;;;;;6.91;77.93;101405.66;5037673;28;20073;-78
2022/02/24 03:09:45;;;;;;;5.70;1.52;;;;;;;6.92;77.96;101399.53;5020409;28;20072;-78
2022/02/24 03:12:11;;;;;;;3.72;2.10;;;;;;;6.92;77.78;101398.69;5037897;28;20044;-78
2022/02/24 03:14:38;;;;;;;6.15;1.52;;;;;;;6.94;78.09;101390.84;5037948;28;20040;-77
2022/02/24 03:17:07;;;;;;;6.78;2.08;;;;;;;6.92;77.99;101378.69;5019410;28;20037;-78
2022/02/24 03:19:32;;;;;;;3.88;1.20;;;;;;;6.96;78.50;101379.50;5037799;28;20033;-78
2022/02/24 03:21:58;;;;;;;2.47;1.38;;;;;;;6.96;78.92;101369.09;5037323;28;20100;-78
2022/02/24 03:24:23;;;;;;;9.05;2.58;;;;;;;6.94;78.00;101359.59;5037783;28;20025;-77
2022/02/24 03:26:49;;;;;;;7.43;1.90;;;;;;;6.95;78.63;101364.78;5037610;28;20055;-78
2022/02/24 03:29:15;;;;;;;6.90;1.75;;;;;;;6.95;78.80;101361.31;5019540;28;20025;-78
2022/02/24 03:31:41;;;;;;;3.88;2.20;;;;;;;6.96;78.94;101363.03;5038198;28;20033;-78
2022/02/24 03:34:06;;;;;;;7.10;2.03;;;;;;;6.97;78.99;101354.31;5019167;28;20054;-78
2022/02/24 03:36:33;;;;;;;8.38;2.22;;;;;;;6.94;77.70;101357.00;5037850;28;20072;-78
2022/02/24 03:38:58;;;;;;;4.22;2.00;;;;;;;6.94;78.38;101360.47;5037469;28;20033;-78
2022/02/24 03:41:23;;;;;;;10.30;2.05;;;;;;;6.93;78.16;101358.75;5037671;28;20291;-78
2022/02/24 03:43:50;;;;;;;7.40;2.15;;;;;;;6.89;77.23;101357.94;5037492;28;20329;-78
2022/02/24 03:46:16;;;;;;;4.57;1.70;;;;;;;6.91;77.89;101352.69;5037460;28;20317;-78
2022/02/24 03:48:41;;;;;;;6.95;1.90;;;;;;;6.90;78.34;101351.84;5037443;28;20076;-78
2022/02/24 03:51:06;;;;;;;5.18;1.70;;;;;;;6.92;78.54;101349.22;5036984;28;20041;-78
2022/02/24 03:53:32;;;;;;;5.32;2.00;;;;;;;6.92;78.87;101349.22;5020030;28;20041;-78
2022/02/24 03:55:57;;;;;;;10.63;2.28;;;;;;;6.91;78.88;101347.47;5037355;28;20329;-78
2022/02/24 03:58:22;;;;;;;10.13;2.28;;;;;;;6.89;78.32;101346.66;5036994;28;20041;-78
2022/02/24 04:00:48;;;;;;;5.63;2.13;;;;;;;6.90;78.27;101343.16;5003350;28;20025;-76
2022/02/24 04:03:13;;;;;;;7.55;2.25;;;;;;;6.90;78.77;101335.38;5003213;28;20029;-76
2022/02/24 04:05:39;;;;;;;5.35;2.00;;;;;;;6.89;78.39;101331.91;4987196;28;20111;-76
2022/02/24 04:08:05;;;;;;;10.23;2.05;;;;;;;6.90;78.96;101335.38;5019266;28;20026;-76
2022/02/24 04:10:31;;;;;;;6.85;2.35;;;;;;;6.88;78.20;101324.13;5037261;28;20037;-76
2022/02/24 04:12:56;;;;;;;8.13;2.17;;;;;;;6.89;78.77;101325.81;5036746;28;20029;-76
2022/02/24 04:15:21;;;;;;;7.38;1.70;;;;;;;6.90;79.01;101319.75;5037526;28;20045;-76
2022/02/24 04:17:47;;;;;;;7.10;2.00;;;;;;;6.91;79.69;101316.22;5037260;28;20044;-76
2022/02/24 04:20:13;;;;;;;10.65;2.28;;;;;;;6.90;79.17;101319.75;5019477;28;20058;-76
2022/02/24 04:22:38;;;;;;;6.72;2.33;;;;;;;6.88;79.05;101316.31;5019933;28;20036;-76
2022/02/24 04:25:04;;;;;;;6.85;2.22;;;;;;;6.89;79.21;101312.81;5019307;28;20053;-76
2022/02/24 04:27:29;;;;;;;4.80;2.42;;;;;;;6.90;79.47;101311.94;5037148;28;20045;-76
2022/02/24 04:29:56;;;;;;;8.98;2.30;;;;;;;6.90;79.35;101304.97;5036902;28;20337;-76
2022/02/24 04:32:21;;;;;;;7.90;2.53;;;;;;;6.88;78.85;101303.28;5036843;28;20388;-76
2022/02/24 04:34:46;;;;;;;5.93;2.22;;;;;;;6.86;79.25;101303.31;5038828;28;20045;-76
2022/02/24 04:37:12;;;;;;;9.07;2.70;;;;;;;6.84;78.89;101310.28;5023001;28;20049;-76
2022/02/24 04:39:37;;;;;;;5.50;2.10;;;;;;;6.87;79.18;101315.44;5023524;28;20104;-76
2022/02/24 04:42:03;;;;;;;9.25;2.30;;;;;;;6.84;78.72;101306.81;5006510;28;20056;-76
2022/02/24 04:44:28;;;;;;;4.50;2.22;;;;;;;6.86;79.08;101308.53;5023063;28;20320;-76
2022/02/24 04:46:53;;;;;;;8.88;2.33;;;;;;;6.85;79.42;101296.38;5040640;28;20109;-76
2022/02/24 04:49:19;;;;;;;5.93;2.05;;;;;;;6.85;79.76;101293.78;5023214;28;20049;-76
2022/02/24 04:51:44;;;;;;;5.80;2.03;;;;;;;6.84;79.26;101283.38;5040960;28;20132;-76
2022/02/24 04:54:10;;;;;;;9.50;2.35;;;;;;;6.83;79.32;101294.69;5006204;28;20047;-76
2022/02/24 04:56:35;;;;;;;8.52;2.40;;;;;;;6.83;79.11;101273.88;5022895;28;20221;-76
2022/02/24 04:59:00;;;;;;;7.20;2.13;;;;;;;6.83;79.42;101277.31;5001885;28;20096;-76
2022/02/24 05:01:28;;;;;;;7.47;2.30;;;;;;;6.81;79.39;101283.47;5023692;28;20047;-76
2022/02/24 05:03:53;;;;;;;5.47;1.77;;;;;;;6.81;79.21;101273.88;5023334;28;20126;-76
2022/02/24 05:06:19;;;;;;;12.50;2.58;;;;;;;6.79;78.94;101272.22;5022007;28;20034;-76
2022/02/24 05:08:44;;;;;;;8.30;2.35;;;;;;;6.81;79.42;101275.66;5022658;28;20371;-76
2022/02/24 05:11:09;;;;;;;9.50;2.15;;;;;;;6.79;78.71;101270.47;5039629;28;20049;-76
2022/02/24 05:13:35;;;;;;;5.30;2.08;;;;;;;6.82;79.35;101261.72;5022433;28;20033;-76
2022/02/24 05:16:00;;;;;;;6.63;1.92;;;;;;;6.82;79.35;101256.53;5022475;28;20102;-76
2022/02/24 05:18:27;;;;;;;5.88;2.88;;;;;;;6.81;79.31;101260.03;5039692;28;20049;-76
2022/02/24 05:20:52;;;;;;;8.98;2.08;;;;;;;6.81;79.28;101257.41;5022274;28;20053;-76
2022/02/24 05:23:17;;;;;;;8.02;2.03;;;;;;;6.82;79.33;101248.72;5039934;28;20136;-76
2022/02/24 05:25:43;;;;;;;11.13;2.25;;;;;;;6.79;79.11;101243.56;5040168;28;20097;-76
2022/02/24 05:28:10;;;;;;;6.07;1.70;;;;;;;6.81;79.55;101241.81;5021857;28;20036;-76
2022/02/24 05:30:36;;;;;;;8.48;2.13;;;;;;;6.83;79.74;101238.28;5039847;28;20039;-76
2022/02/24 05:33:02;;;;;;;9.00;1.77;;;;;;;6.83;79.54;101234.81;5039969;28;20045;-76
2022/02/24 05:35:28;;;;;;;7.57;1.90;;;;;;;6.82;79.47;101226.16;5022139;28;20033;-76
2022/02/24 05:37:53;;;;;;;7.70;1.95;;;;;;;6.81;79.50;101220.97;5005265;28;20033;-76
2022/02/24 05:40:19;;;;;;;7.15;1.77;;;;;;;6.83;80.15;101212.25;5021726;28;20064;-76
2022/02/24 05:42:45;;;;;;;5.88;1.77;;;;;;;6.84;80.15;101207.88;5039203;28;20112;-76
2022/02/24 05:45:11;;;;;;;7.60;2.85;;;;;;;6.83;79.65;101204.44;5021105;28;20041;-76
2022/02/24 05:47:36;;;;;;;12.50;2.15;;;;;;;6.83;79.66;101200.97;5005466;28;20057;-76
2022/02/24 05:50:07;;;;;;;9.52;2.70;;;;;;;6.81;78.55;101194.94;5039774;28;20048;-76
2022/02/24 05:52:35;;;;;;;6.22;1.60;;;;;;;6.82;79.19;101187.09;5021641;28;20024;-76
2022/02/24 05:55:01;;;;;;;11.13;2.15;;;;;;;6.83;78.91;101182.75;5021400;28;20316;-76
2022/02/24 05:57:26;;;;;;;6.43;2.33;;;;;;;6.82;79.15;101181.03;5039062;28;20026;-76
2022/02/24 05:59:52;;;;;;;8.75;1.92;;;;;;;6.84;79.31;101179.25;5038534;28;20226;-76
2022/02/24 06:02:18;;;;;;;6.30;1.50;;;;;;;6.85;79.70;101167.94;5039388;28;20100;-76
2022/02/24 06:04:43;;;;;;;6.00;2.00;;;;;;;6.84;79.37;101177.53;5039588;28;20104;-76
2022/02/24 06:07:09;;;;;;;6.55;1.70;;;;;;;6.86;79.69;101167.06;5038492;28;20037;-76
2022/02/24 06:09:35;;;;;;;7.40;1.95;;;;;;;6.84;79.82;101156.69;5039147;28;20033;-76
2022/02/24 06:12:00;;;;;;;9.00;2.13;;;;;;;6.84;79.74;101163.63;5019672;28;20033;-76
2022/02/24 06:14:26;;;;;;;5.38;2.10;;;;;;;6.84;79.76;101158.41;5035881;28;20041;-76
2022/02/24 06:16:51;;;;;;;8.40;2.50;;;;;;;6.85;79.75;101153.19;5021085;28;20083;-76
2022/02/24 06:19:16;;;;;;;8.85;1.90;;;;;;;6.83;79.45;101148.91;5020547;28;20260;-76
2022/02/24 06:21:42;;;;;;;6.97;2.22;;;;;;;6.82;79.55;101153.25;5016108;28;20041;-76
2022/02/24 06:24:07;;;;;;;7.05;2.75;;;;;;;6.83;79.94;101136.75;5019382;28;20255;-76
2022/02/24 06:26:33;;;;;;;5.75;2.20;;;;;;;6.83;79.76;101148.91;4988841;28;20410;-78
2022/02/24 06:28:59;;;;;;;4.85;2.05;;;;;;;6.84;80.32;101148.00;5037351;28;20261;-76
2022/02/24 06:31:25;;;;;;;6.35;2.20;;;;;;;6.87;80.35;101146.19;5037214;28;20037;-76
2022/02/24 06:33:50;;;;;;;3.25;1.65;;;;;;;6.88;80.74;101140.09;5038505;28;20064;-77
2022/02/24 06:36:15;;;;;;;4.72;2.20;;;;;;;6.88;80.34;101134.06;5040422;28;20230;-76
2022/02/24 06:38:41;;;;;;;9.32;2.35;;;;;;;6.87;80.41;101129.72;5016096;28;20041;-76
2022/02/24 06:41:06;;;;;;;7.35;2.05;;;;;;;6.87;80.15;101129.72;5017559;28;20459;-77
2022/02/24 06:43:32;;;;;;;7.38;2.22;;;;;;;6.86;80.50;101134.09;5018975;28;20042;-76
2022/02/24 06:45:57;;;;;;;6.28;2.33;;;;;;;6.85;80.69;101127.16;5022773;28;20565;-76
2022/02/24 06:48:24;;;;;;;5.75;1.88;;;;;;;6.88;80.89;101126.25;5029745;28;20229;-76
2022/02/24 06:50:50;;;;;;;11.05;2.42;;;;;;;6.88;80.63;101113.22;5018903;28;20286;-76
2022/02/24 06:53:15;;;;;;;7.22;2.15;;;;;;;6.87;80.66;101120.16;5005427;28;20048;-76
2022/02/24 06:55:44;;;;;;;4.63;1.90;;;;;;;6.88;80.93;101114.06;5020603;28;20036;-76
2022/02/24 06:58:09;;;;;;;5.07;1.70;;;;;;;6.90;80.84;101114.03;5017539;28;20043;-76
2022/02/24 07:00:34;;;;;;;5.85;1.70;;;;;;;6.91;80.96;101106.22;5019000;28;20112;-76
2022/02/24 07:03:00;;;;;;;5.78;1.25;;;;;;;6.91;80.97;101102.72;5016950;28;20107;-76
2022/02/24 07:05:25;;;;;;;3.78;1.25;;;;;;;6.91;80.88;101089.72;4989437;28;20563;-76
2022/02/24 07:07:50;;;;;;;8.05;1.52;;;;;;;6.91;80.63;101081.91;5015921;28;20041;-76
2022/02/24 07:10:16;;;;;;;5.28;1.48;;;;;;;6.89;79.99;101089.75;5036465;28;20295;-76
2022/02/24 07:12:43;;;;;;;9.43;1.95;;;;;;;6.88;79.71;101082.81;5018677;28;20041;-76
2022/02/24 07:15:10;;;;;;;8.45;1.70;;;;;;;6.87;79.75;101072.44;5017073;28;20045;-77
2022/02/24 07:17:43;;;;;;;5.35;1.70;;;;;;;6.89;80.06;101068.06;5001711;28;20286;-76
2022/02/24 07:20:10;;;;;;;7.05;2.95;;;;;;;6.88;80.06;101074.19;5034918;28;20353;-76
2022/02/24 07:22:36;;;;;;;9.60;2.05;;;;;;;6.88;80.52;101074.19;5035553;28;20048;-76
2022/02/24 07:25:02;;;;;;;8.93;1.20;;;;;;;6.89;80.22;101062.84;5017975;28;20041;-77
2022/02/24 07:27:27;;;;;;;6.85;1.70;;;;;;;6.89;80.33;101061.13;5036158;28;20045;-76
2022/02/24 07:29:53;;;;;;;6.90;1.80;;;;;;;6.89;80.29;101063.72;4998429;28;20044;-76
2022/02/24 07:32:18;;;;;;;3.25;1.55;;;;;;;6.90;80.69;101056.75;4998815;28;20426;-76
2022/02/24 07:34:45;;;;;;;6.88;2.63;;;;;;;6.89;80.05;101063.72;5017511;28;20040;-76
2022/02/24 07:37:11;;;;;;;3.65;1.35;;;;;;;6.90;80.32;101061.97;5017590;28;20096;-77
2022/02/24 07:39:37;;;;;;;13.98;2.30;;;;;;;6.91;80.38;101053.25;5027789;28;20046;-77
2022/02/24 07:42:03;;;;;;;8.20;1.70;;;;;;;6.92;80.53;101042.81;5027070;28;20075;-76
2022/02/24 07:44:28;;;;;;;8.68;1.60;;;;;;;6.91;80.26;101035.03;4994089;28;20308;-76
2022/02/24 07:46:54;;;;;;;5.95;1.70;;;;;;;6.90;80.13;101035.94;5030106;28;20228;-76
2022/02/24 07:49:22;;;;;;;4.75;1.95;;;;;;;6.90;80.31;101025.53;5017725;28;20061;-76
2022/02/24 07:51:51;;;;;;;5.32;1.60;;;;;;;6.91;80.32;101022.00;4998376;28;20269;-76
2022/02/24 07:54:18;;;;;;;6.15;1.42;;;;;;;6.91;79.99;101024.63;5034546;28;20052;-77
2022/02/24 07:56:43;;;;;;;12.15;1.60;;;;;;;6.91;80.25;101022.88;5017799;28;20093;-76
2022/02/24 07:59:08;;;;;;;3.90;1.40;;;;;;;6.92;80.30;101028.94;5003907;28;20045;-76
2022/02/24 08:01:34;;;;;;;5.35;1.48;;;;;;;6.91;80.07;101025.50;5034479;28;20352;-77
2022/02/24 08:03:59;;;;;;;3.95;1.25;;;;;;;6.91;80.25;101022.00;5014076;28;20300;-76
2022/02/24 08:06:24;;;;;;;4.28;1.30;;;;;;;6.94;80.61;101015.91;4984300;28;20030;-76
2022/02/24 08:08:50;;;;;;;7.60;1.75;;;;;;;6.92;80.25;101021.97;5028602;28;20067;-76
2022/02/24 08:11:15;;;;;;;3.45;1.30;;;;;;;6.95;80.37;101023.69;5040998;28;20304;-76
2022/02/24 08:13:42;;;;;;;2.45;1.30;;;;;;;6.95;80.65;101026.28;5018845;28;20245;-76
2022/02/24 08:16:08;;;;;;;7.55;1.42;;;;;;;6.97;80.59;101021.91;5016166;28;20353;-76
2022/02/24 08:18:33;;;;;;;10.05;2.42;;;;;;;6.92;79.78;101015.94;5034484;28;20053;-76
2022/02/24 08:20:58;;;;;;;6.10;1.30;;;;;;;6.92;80.23;101008.97;5019214;28;20099;-76
2022/02/24 08:23:24;;;;;;;6.28;1.42;;;;;;;6.91;80.37;101009.88;4999425;28;20044;-77
2022/02/24 08:25:49;;;;;;;4.15;1.45;;;;;;;6.94;80.31;101001.13;5019627;28;20030;-77
2022/02/24 08:28:15;;;;;;;8.00;1.60;;;;;;;6.92;80.53;101006.34;5038006;28;20285;-77
2022/02/24 08:30:40;;;;;;;3.13;1.48;;;;;;;6.92;80.03;101000.31;5040348;28;20033;-77
2022/02/24 08:33:06;;;;;;;3.90;2.20;;;;;;;6.93;80.43;100996.81;5019479;28;20060;-77
2022/02/24 08:35:32;;;;;;;5.47;1.35;;;;;;;6.94;80.28;100985.50;5018520;28;20565;-77
2022/02/24 08:37:57;;;;;;;5.03;1.27;;;;;;;6.95;80.10;100984.63;4999516;28;20354;-76
2022/02/24 08:40:23;;;;;;;7.03;1.33;;;;;;;6.97;80.17;100976.75;5017668;28;20029;-76
2022/02/24 08:42:50;;;;;;;5.05;1.27;;;;;;;6.96;80.30;100969.84;5000477;28;20319;-77
2022/02/24 08:45:16;;;;;;;6.47;1.98;;;;;;;6.97;80.38;100968.94;5031289;28;20644;-76
2022/02/24 08:47:42;;;;;;;7.90;1.73;;;;;;;6.97;80.46;100961.13;5037466;28;20269;-76
2022/02/24 08:50:10;;;;;;;7.05;2.65;;;;;;;6.97;80.45;100950.72;5026539;28;20037;-76
2022/02/24 08:52:35;;;;;;;6.20;1.58;;;;;;;6.99;80.68;100946.34;5046335;28;20037;-76
2022/02/24 08:55:01;;;;;;;9.57;1.75;;;;;;;7.00;79.93;100937.63;5024322;28;20059;-77
2022/02/24 08:57:26;;;;;;;7.38;2.10;;;;;;;7.01;80.18;100932.38;5037414;28;20036;-76
2022/02/24 08:59:52;;;;;;;7.43;1.92;;;;;;;7.00;80.17;100933.25;5033730;28;20069;-76
2022/02/24 09:02:18;;;;;;;8.48;2.42;;;;;;;7.02;80.16;100913.28;5035450;28;20041;-76
2022/02/24 09:04:44;;;;;;;6.93;2.13;;;;;;;7.04;80.34;100898.47;5031400;28;20071;-77
2022/02/24 09:07:09;;;;;;;9.18;1.83;;;;;;;7.04;80.49;100898.47;5037956;28;20048;-76
2022/02/24 09:09:35;;;;;;;6.35;2.00;;;;;;;7.08;80.31;100904.44;5028325;28;20102;-76
2022/02/24 09:12:01;;;;;;;8.63;1.80;;;;;;;7.09;80.53;100900.94;5039868;28;20049;-76
2022/02/24 09:14:27;;;;;;;4.70;1.83;;;;;;;7.10;80.69;100887.03;5036927;28;20049;-77
2022/02/24 09:16:53;;;;;;;5.15;2.00;;;;;;;7.13;80.47;100868.72;5036056;28;20041;-77
2022/02/24 09:19:18;;;;;;;6.28;1.80;;;;;;;7.16;80.42;100870.41;5018422;28;20228;-77
2022/02/24 09:21:44;;;;;;;7.82;1.90;;;;;;;7.18;80.59;100871.19;5017552;28;20298;-76
2022/02/24 09:24:10;;;;;;;8.20;2.15;;;;;;;7.20;80.56;100867.66;5003143;28;20033;-77
2022/02/24 09:26:36;;;;;;;8.93;1.73;;;;;;;7.22;80.73;100859.81;5035799;28;20052;-76
2022/02/24 09:29:03;;;;;;;7.30;1.70;;;;;;;7.23;80.67;100857.16;5036455;28;20084;-76
2022/02/24 09:31:29;;;;;;;11.68;2.53;;;;;;;7.25;80.60;100859.72;5036321;28;20037;-76
2022/02/24 09:33:54;;;;;;;10.43;2.63;;;;;;;7.26;80.57;100838.84;5033070;28;20037;-76
2022/02/24 09:36:20;;;;;;;6.03;2.40;;;;;;;7.27;80.42;100816.25;5017694;28;20041;-76
2022/02/24 09:38:45;;;;;;;8.80;2.42;;;;;;;7.29;80.62;100823.16;5017935;28;20033;-76
2022/02/24 09:41:11;;;;;;;11.32;2.45;;;;;;;7.32;80.54;100811.78;5032414;28;20037;-76
2022/02/24 09:43:37;;;;;;;7.00;2.17;;;;;;;7.32;80.42;100823.97;5018704;28;20058;-76
2022/02/24 09:46:07;;;;;;;9.32;1.95;;;;;;;7.33;80.04;100823.03;5025705;28;20037;-77
2022/02/24 09:48:36;;;;;;;8.15;2.17;;;;;;;7.34;80.23;100815.19;5001705;28;20398;-76
2022/02/24 09:51:04;;;;;;;12.20;2.25;;;;;;;7.34;80.11;100804.78;5033749;28;20048;-76
2022/02/24 09:53:32;;;;;;;6.80;2.17;;;;;;;7.35;80.32;100800.41;5034752;28;20033;-76
2022/02/24 09:56:02;;;;;;;8.68;2.30;;;;;;;7.37;80.52;100775.16;5019759;28;20033;-76
2022/02/24 09:58:28;;;;;;;8.90;2.22;;;;;;;7.37;80.62;100782.97;5028588;28;20025;-76
2022/02/24 10:00:54;;;;;;;9.18;2.47;;;;;;;7.40;80.74;100790.72;5038662;28;20041;-76
2022/02/24 10:03:24;;;;;;;13.02;2.97;;;;;;;7.42;80.29;100778.50;5024038;28;20337;-77
2022/02/24 10:05:50;;;;;;;11.23;2.88;;;;;;;7.44;80.66;100777.56;5044483;28;20028;-76
2022/02/24 10:08:15;;;;;;;6.15;2.83;;;;;;;7.47;80.69;100767.03;5018529;28;20087;-76
2022/02/24 10:10:42;;;;;;;8.27;2.67;;;;;;;7.53;81.22;100754.72;5042335;28;20041;-76
2022/02/24 10:13:15;;;;;;;6.57;2.30;;;;;;;7.54;80.49;100759.06;5022701;28;20029;-76
2022/02/24 10:15:52;;;;;;;8.43;2.50;;;;;;;7.57;80.71;100754.63;5025173;28;20044;-77
2022/02/24 10:18:19;;;;;;;12.10;2.85;;;;;;;7.60;80.41;100743.22;5043372;28;20124;-76
2022/02/24 10:20:47;;;;;;;10.88;3.08;;;;;;;7.63;80.16;100738.78;5027360;28;20116;-77
2022/02/24 10:23:14;;;;;;;10.13;2.03;;;;;;;7.66;80.55;100717.84;5039407;28;20356;-76
2022/02/24 10:25:50;;;;;;;9.73;2.50;;;;;;;7.67;80.55;100724.75;5044675;28;20033;-77
2022/02/24 10:28:33;;;;;;;8.90;2.28;;;;;;;7.70;80.13;100723.81;5024495;28;20495;-76
2022/02/24 10:31:24;;;;;;;11.25;3.10;;;;;;;7.73;80.58;100717.66;5043015;28;20370;-76
2022/02/24 10:33:52;;;;;;;12.55;2.92;;;;;;;7.75;80.36;100714.09;5035744;28;20032;-76
2022/02/24 10:36:25;;;;;;;7.03;2.70;;;;;;;7.76;80.15;100718.41;5045506;28;20061;-76
2022/02/24 10:39:02;;;;;;;9.75;2.63;;;;;;;7.78;80.23;100721.81;5044103;28;20033;-77
2022/02/24 10:41:29;;;;;;;10.98;2.80;;;;;;;7.79;79.83;100715.72;5040619;28;20065;-76
2022/02/24 10:44:10;;;;;;;13.35;2.85;;;;;;;7.80;80.20;100708.75;5034508;28;20033;-76
2022/02/24 10:46:35;;;;;;;11.48;2.65;;;;;;;7.82;80.47;100706.94;5035072;28;20038;-76
2022/02/24 10:49:00;;;;;;;7.68;2.35;;;;;;;7.83;80.26;100704.28;5001416;28;20211;-76
2022/02/24 10:51:28;;;;;;;15.07;3.35;;;;;;;7.86;80.33;100692.91;5035734;28;20123;-76
2022/02/24 10:54:13;;;;;;;12.65;3.30;;;;;;;7.88;80.16;100676.31;5034901;28;20221;-76
2022/02/24 10:56:41;;;;;;;8.15;2.47;;;;;;;7.90;80.25;100684.09;5038400;28;20060;-77
2022/02/24 10:59:08;;;;;;;10.60;2.55;;;;;;;7.92;80.20;100671.00;5032429;28;20045;-76
2022/02/24 11:01:34;;;;;;;8.13;2.72;;;;;;;7.93;79.85;100659.66;5021750;28;20241;-76
2022/02/24 11:04:05;;;;;;;11.98;3.42;;;;;;;7.96;79.50;100659.56;5041690;28;20100;-76
2022/02/24 11:06:36;;;;;;;9.57;3.08;;;;;;;7.97;79.69;100651.69;5004258;28;20033;-76
2022/02/24 11:09:04;;;;;;;12.68;2.60;;;;;;;7.96;79.61;100647.38;5034848;28;20035;-77
2022/02/24 11:11:36;;;;;;;9.95;2.60;;;;;;;7.98;79.24;100639.50;5035965;28;20041;-76
2022/02/24 11:14:05;;;;;;;13.60;3.08;;;;;;;7.98;79.39;100649.94;5035298;28;20037;-76
2022/02/24 11:16:32;;;;;;;8.15;2.83;;;;;;;7.96;79.34;100634.34;5035127;28;20049;-77
2022/02/24 11:18:57;;;;;;;11.40;2.63;;;;;;;7.97;79.49;100625.63;5009765;28;20064;-77
2022/02/24 11:21:24;;;;;;;17.67;3.13;;;;;;;7.97;79.17;100625.63;5016370;28;20041;-77
2022/02/24 11:23:51;;;;;;;12.73;2.55;;;;;;;7.97;80.11;100615.19;5017925;28;20127;-76
2022/02/24 11:26:23;;;;;;;9.02;2.50;;;;;;;7.97;80.69;100604.75;5020924;28;20053;-77
2022/02/24 11:28:57;;;;;;;9.60;2.60;;;;;;;7.99;80.31;100594.28;5034878;28;20345;-77
2022/02/24 11:31:27;;;;;;;10.57;2.67;;;;;;;8.00;80.28;100603.78;5032077;28;20355;-76